Time;durP1;ratioP1;P1;durP2;ratioP2;P2;SDS_P1;SDS_P2;PMS_P1;PMS_P2;Temp;Humidity;BMP_temperature;BMP_pressure;BME280_temperature;BME280_humidity;BME280_pressure;Samples;Min_cycle;Max_cycle;Signal;HPM_P1;HPM_P2
2021/12/15 00:01:13;;;;;;;31.73;9.85;;;0.00;99.90;;;;;;5062896;28;20384;-88
2021/12/15 00:03:41;;;;;;;23.92;8.68;;;0.10;99.90;;;;;;5051850;28;20450;-88
2021/12/15 00:06:16;;;;;;;18.48;6.07;;;0.10;99.90;;;;;;5052287;28;20750;-89
2021/12/15 00:08:50;;;;;;;27.60;7.68;;;0.10;99.90;;;;;;5051959;28;20381;-88
2021/12/15 00:11:19;;;;;;;28.23;8.63;;;0.10;99.90;;;;;;5051955;28;20394;-88
2021/12/15 00:13:48;;;;;;;28.60;7.10;;;0.10;99.90;;;;;;5035315;28;20429;-88
2021/12/15 00:16:17;;;;;;;23.55;8.13;;;0.10;99.90;;;;;;5051827;28;20433;-89
2021/12/15 00:18:44;;;;;;;17.58;7.47;;;0.10;99.90;;;;;;5053718;28;20428;-88
2021/12/15 00:21:15;;;;;;;16.70;6.83;;;0.10;99.90;;;;;;5055199;28;20414;-88
2021/12/15 00:23:44;;;;;;;19.90;8.27;;;0.10;99.90;;;;;;5055137;28;20410;-88
2021/12/15 00:26:12;;;;;;;22.42;7.30;;;0.10;99.90;;;;;;5053298;28;20388;-86
2021/12/15 00:28:41;;;;;;;18.90;6.30;;;0.10;99.90;;;;;;5051670;28;20916;-88
2021/12/15 00:31:10;;;;;;;15.17;6.57;;;0.10;99.90;;;;;;5051044;28;20399;-87
2021/12/15 00:33:39;;;;;;;17.10;7.38;;;0.10;99.90;;;;;;5051494;28;20391;-87
2021/12/15 00:36:09;;;;;;;23.55;8.55;;;0.10;99.90;;;;;;5051373;28;20388;-88
2021/12/15 00:38:36;;;;;;;17.58;7.70;;;0.10;99.90;;;;;;5045919;28;21009;-87
2021/12/15 00:41:05;;;;;;;17.90;6.88;;;0.10;99.90;;;;;;5015349;28;20416;-87
2021/12/15 00:43:34;;;;;;;17.48;6.50;;;0.10;99.90;;;;;;5031505;28;20471;-87
2021/12/15 00:46:02;;;;;;;16.45;6.70;;;0.10;99.90;;;;;;5031470;28;20433;-87
2021/12/15 00:48:30;;;;;;;22.15;6.32;;;0.10;99.90;;;;;;5031287;28;20418;-87
2021/12/15 00:50:58;;;;;;;15.45;6.47;;;0.10;99.90;;;;;;5031208;28;20425;-88
2021/12/15 00:53:27;;;;;;;13.23;6.18;;;0.20;99.90;;;;;;5031345;28;20405;-86
2021/12/15 00:55:55;;;;;;;14.80;6.23;;;0.10;99.90;;;;;;5015070;28;20417;-88
2021/12/15 00:58:22;;;;;;;19.30;7.00;;;0.10;99.90;;;;;;5014773;28;20455;-87
2021/12/15 01:00:58;;;;;;;15.60;7.38;;;0.10;99.90;;;;;;5031229;28;20405;-87
2021/12/15 01:03:26;;;;;;;21.30;7.55;;;0.10;99.90;;;;;;5030933;28;20409;-87
2021/12/15 01:05:59;;;;;;;15.82;6.35;;;0.10;99.90;;;;;;5014865;28;20432;-89
2021/12/15 01:08:29;;;;;;;15.85;6.60;;;0.10;99.90;;;;;;5030960;28;20447;-87
2021/12/15 01:11:14;;;;;;;17.20;7.70;;;0.20;99.90;;;;;;5022794;28;20405;-87
2021/12/15 01:22:14;;;;;;;17.63;7.57;;;0.20;99.90;;;;;;5032055;28;20736;-89
2021/12/15 01:24:42;;;;;;;18.35;7.70;;;0.20;99.90;;;;;;5030866;28;20397;-89
2021/12/15 01:27:09;;;;;;;21.10;7.60;;;0.20;99.90;;;;;;5030873;28;20464;-88
2021/12/15 01:29:37;;;;;;;20.45;7.80;;;0.20;99.90;;;;;;5031013;28;20386;-89
2021/12/15 01:32:05;;;;;;;22.13;8.00;;;0.20;99.90;;;;;;5047336;28;20398;-89
2021/12/15 01:34:33;;;;;;;18.42;8.00;;;0.20;99.90;;;;;;5047392;28;20397;-87
2021/12/15 01:37:01;;;;;;;19.98;8.02;;;0.20;99.90;;;;;;5030948;28;20471;-88
2021/12/15 01:39:29;;;;;;;18.80;7.75;;;0.20;99.90;;;;;;5047376;28;20406;-89
2021/12/15 01:41:57;;;;;;;23.02;8.88;;;0.20;99.90;;;;;;5047775;28;20393;-86
2021/12/15 01:47:01;;;;;;;17.77;7.95;;;0.20;99.90;;;;;;5051034;28;20455;-89
2021/12/15 01:49:37;;;;;;;21.58;9.95;;;0.20;99.90;;;;;;5034636;28;20471;-89
2021/12/15 01:52:10;;;;;;;20.10;8.65;;;0.20;99.90;;;;;;5040831;28;20408;-86
2021/12/15 01:54:40;;;;;;;19.45;8.38;;;0.20;99.90;;;;;;5034506;28;20462;-89
2021/12/15 01:57:11;;;;;;;23.03;9.10;;;0.20;99.90;;;;;;5018132;28;20760;-87
2021/12/15 01:59:43;;;;;;;19.60;8.43;;;0.20;99.90;;;;;;5018059;28;20409;-87
2021/12/15 02:02:11;;;;;;;17.95;8.13;;;0.20;99.90;;;;;;5017980;28;20979;-86
2021/12/15 02:04:39;;;;;;;19.08;8.25;;;0.20;99.90;;;;;;5034274;28;20454;-88
2021/12/15 02:07:12;;;;;;;28.75;9.55;;;0.20;99.90;;;;;;5017957;28;20421;-89
2021/12/15 02:12:11;;;;;;;21.80;8.73;;;0.30;99.90;;;;;;5035525;28;20382;-89
2021/12/15 02:14:40;;;;;;;19.33;7.97;;;0.20;99.90;;;;;;5034169;28;20385;-88
2021/12/15 02:17:08;;;;;;;21.20;8.82;;;0.20;99.90;;;;;;5017834;28;20456;-88
2021/12/15 02:19:36;;;;;;;20.65;9.88;;;0.20;99.90;;;;;;5033937;28;20385;-88
2021/12/15 02:22:04;;;;;;;21.58;9.80;;;0.30;99.90;;;;;;5052671;28;20443;-89
2021/12/15 02:24:34;;;;;;;22.42;9.90;;;0.30;99.90;;;;;;5053754;28;20489;-89
2021/12/15 02:27:04;;;;;;;19.53;8.67;;;0.30;99.90;;;;;;5053798;28;20429;-89
2021/12/15 02:29:37;;;;;;;18.98;8.55;;;0.30;99.90;;;;;;5037228;28;20396;-88
2021/12/15 02:34:56;;;;;;;19.45;8.43;;;0.20;99.90;;;;;;5086612;28;20404;-89
2021/12/15 02:37:22;;;;;;;15.97;7.67;;;0.20;99.90;;;;;;5070269;28;20445;-89
2021/12/15 02:39:57;;;;;;;21.70;9.48;;;0.20;99.90;;;;;;5067215;28;20399;-89
2021/12/15 02:42:29;;;;;;;21.15;8.50;;;0.20;99.90;;;;;;5053549;28;20402;-89
2021/12/15 02:44:57;;;;;;;21.00;8.80;;;0.30;99.90;;;;;;5053488;28;20936;-88
2021/12/15 02:47:28;;;;;;;20.58;9.30;;;0.30;99.90;;;;;;5054579;28;20387;-89
2021/12/15 02:49:58;;;;;;;22.08;9.10;;;0.30;99.90;;;;;;5053464;28;20894;-89
2021/12/15 02:52:27;;;;;;;17.75;8.43;;;0.30;99.90;;;;;;5071285;28;20382;-88
2021/12/15 02:54:54;;;;;;;22.50;9.02;;;0.30;99.90;;;;;;5074168;28;20386;-89
2021/12/15 02:57:22;;;;;;;24.23;9.43;;;0.30;99.90;;;;;;5073437;28;20393;-89
2021/12/15 03:08:00;;;;;;;21.67;9.02;;;0.30;99.90;;;;;;5073556;28;20406;-89
2021/12/15 03:16:02;;;;;;;20.17;9.15;;;0.30;99.90;;;;;;5054006;28;20464;-88
2021/12/15 03:18:30;;;;;;;18.48;8.07;;;0.30;99.90;;;;;;5052877;28;20446;-88
2021/12/15 03:21:21;;;;;;;15.55;7.80;;;0.30;99.90;;;;;;5052667;28;20412;-89
2021/12/15 03:23:59;;;;;;;15.80;8.07;;;0.30;99.90;;;;;;5052607;28;20766;-89
2021/12/15 03:26:45;;;;;;;14.63;7.80;;;0.30;99.90;;;;;;5052663;28;20400;-89
2021/12/15 03:37:32;;;;;;;16.20;7.43;;;0.30;99.90;;;;;;5052506;28;20879;-88
2021/12/15 03:40:19;;;;;;;14.65;7.10;;;0.30;99.90;;;;;;5053596;28;20388;-88
2021/12/15 03:42:55;;;;;;;18.85;8.35;;;0.30;99.90;;;;;;5035868;28;20797;-88
2021/12/15 03:45:34;;;;;;;20.23;8.05;;;0.30;99.90;;;;;;5053541;28;20392;-88
2021/12/15 03:48:08;;;;;;;16.10;7.75;;;0.30;99.90;;;;;;5052381;28;20384;-88
2021/12/15 03:50:37;;;;;;;18.02;8.05;;;0.30;99.90;;;;;;5052306;28;20446;-89
2021/12/15 03:53:05;;;;;;;16.57;8.13;;;0.30;99.90;;;;;;5051925;28;20458;-88
2021/12/15 03:55:35;;;;;;;20.83;8.47;;;0.30;99.90;;;;;;5052040;28;20453;-88
2021/12/15 03:58:09;;;;;;;13.90;6.55;;;0.30;99.90;;;;;;5051947;28;20824;-88
2021/12/15 04:00:42;;;;;;;16.13;7.45;;;0.30;99.90;;;;;;5053537;28;20417;-88
2021/12/15 04:03:18;;;;;;;15.52;7.47;;;0.30;99.90;;;;;;5072023;28;20412;-88
2021/12/15 04:05:46;;;;;;;14.43;7.03;;;0.30;99.90;;;;;;5071117;28;20405;-88
2021/12/15 04:08:14;;;;;;;16.42;7.43;;;0.30;99.90;;;;;;5055537;28;20463;-89
2021/12/15 04:10:42;;;;;;;12.95;6.85;;;0.40;99.90;;;;;;5071922;28;20402;-88
2021/12/15 04:13:12;;;;;;;15.37;6.80;;;0.40;99.90;;;;;;5071883;28;20430;-88
2021/12/15 04:15:53;;;;;;;15.83;7.40;;;0.30;99.90;;;;;;5062725;28;20403;-88
2021/12/15 04:18:21;;;;;;;13.20;6.50;;;0.30;99.90;;;;;;5051872;28;21008;-89
2021/12/15 04:20:50;;;;;;;18.77;7.78;;;0.30;99.90;;;;;;5054257;28;20440;-88
2021/12/15 04:23:20;;;;;;;15.60;7.20;;;0.40;99.90;;;;;;5055350;28;20416;-88
2021/12/15 04:25:51;;;;;;;15.73;7.78;;;0.40;99.90;;;;;;5051679;28;20388;-87
2021/12/15 04:28:29;;;;;;;14.52;6.72;;;0.30;99.90;;;;;;5060641;28;20383;-87
2021/12/15 04:31:00;;;;;;;15.65;7.25;;;0.30;99.90;;;;;;5058480;28;20773;-87
2021/12/15 04:33:27;;;;;;;16.85;7.78;;;0.30;99.90;;;;;;5051622;28;20395;-87
2021/12/15 04:35:56;;;;;;;16.58;8.73;;;0.40;99.90;;;;;;5051691;28;20898;-88
2021/12/15 04:38:27;;;;;;;14.70;7.50;;;0.30;99.90;;;;;;5051180;28;20400;-87
2021/12/15 04:40:55;;;;;;;17.50;7.72;;;0.30;99.90;;;;;;5051066;28;20407;-88
2021/12/15 04:43:26;;;;;;;16.38;7.53;;;0.40;99.90;;;;;;5051371;28;20967;-88
2021/12/15 04:45:54;;;;;;;19.00;8.57;;;0.40;99.90;;;;;;5040814;28;20799;-89
2021/12/15 04:48:21;;;;;;;16.75;8.20;;;0.40;99.90;;;;;;5054521;28;20475;-88
2021/12/15 04:50:49;;;;;;;19.25;9.18;;;0.30;99.90;;;;;;5063666;28;20462;-88
2021/12/15 04:53:16;;;;;;;19.20;8.95;;;0.40;99.90;;;;;;5063436;28;20456;-89
2021/12/15 04:55:44;;;;;;;20.45;9.32;;;0.40;99.90;;;;;;5054677;28;20876;-87
2021/12/15 04:58:12;;;;;;;17.80;8.83;;;0.40;99.90;;;;;;5054540;28;20896;-88
2021/12/15 05:00:59;;;;;;;22.17;9.98;;;0.30;99.90;;;;;;5069400;28;20450;-88
2021/12/15 05:03:27;;;;;;;16.88;8.32;;;0.40;99.90;;;;;;5070206;28;20402;-89
2021/12/15 05:05:54;;;;;;;19.05;9.50;;;0.30;99.90;;;;;;5070316;28;20398;-88
2021/12/15 05:08:22;;;;;;;20.70;9.68;;;0.40;99.90;;;;;;5070856;28;20927;-88
2021/12/15 05:10:54;;;;;;;19.83;9.18;;;0.40;99.90;;;;;;5072344;28;20452;-88
2021/12/15 05:13:22;;;;;;;23.30;10.95;;;0.40;99.90;;;;;;5071242;28;20444;-89
2021/12/15 05:15:50;;;;;;;21.73;10.37;;;0.30;99.90;;;;;;5054356;28;20564;-90
2021/12/15 05:18:17;;;;;;;22.30;10.35;;;0.40;99.90;;;;;;5054497;28;20425;-89
2021/12/15 05:20:49;;;;;;;19.40;9.70;;;0.40;99.90;;;;;;5062020;28;20462;-89
2021/12/15 05:23:18;;;;;;;16.95;9.02;;;0.40;99.90;;;;;;5074186;28;20482;-89
2021/12/15 05:25:47;;;;;;;20.85;9.57;;;0.30;99.90;;;;;;5074740;28;20395;-89
2021/12/15 05:28:15;;;;;;;24.65;11.75;;;0.40;99.90;;;;;;5090961;28;20400;-89
2021/12/15 05:30:42;;;;;;;17.33;9.30;;;0.40;99.90;;;;;;5074312;28;20886;-89
2021/12/15 05:33:10;;;;;;;19.85;10.35;;;0.30;99.90;;;;;;5074176;28;20905;-88
2021/12/15 05:35:38;;;;;;;21.70;11.25;;;0.40;99.90;;;;;;5088969;28;20475;-89
2021/12/15 05:38:07;;;;;;;20.20;10.07;;;0.40;99.90;;;;;;5066842;28;20390;-89
2021/12/15 05:40:35;;;;;;;17.42;9.40;;;0.40;99.90;;;;;;5054138;28;20389;-89
2021/12/15 05:43:05;;;;;;;20.50;9.40;;;0.40;99.90;;;;;;5071906;28;20868;-89
2021/12/15 05:45:36;;;;;;;17.88;8.98;;;0.40;99.90;;;;;;5054220;28;20489;-88
2021/12/15 05:48:08;;;;;;;17.15;8.10;;;0.40;99.90;;;;;;5070645;28;20390;-88
2021/12/15 05:50:36;;;;;;;18.33;9.57;;;0.40;99.90;;;;;;5046930;28;20407;-89
2021/12/15 05:53:04;;;;;;;19.58;9.75;;;0.40;99.90;;;;;;5050723;28;20407;-88
2021/12/15 05:55:33;;;;;;;17.60;9.30;;;0.40;99.90;;;;;;5050460;28;20885;-87
2021/12/15 05:58:01;;;;;;;18.85;9.38;;;0.40;99.90;;;;;;5051506;28;20392;-88
2021/12/15 06:00:33;;;;;;;21.80;9.57;;;0.40;99.90;;;;;;5050815;28;20386;-88
2021/12/15 06:03:03;;;;;;;18.77;9.10;;;0.40;99.90;;;;;;5050519;28;20388;-87
2021/12/15 06:05:32;;;;;;;23.23;11.07;;;0.40;99.90;;;;;;5050097;28;20478;-89
2021/12/15 06:07:59;;;;;;;20.48;10.23;;;0.40;99.90;;;;;;5050702;28;20479;-89
2021/12/15 06:10:29;;;;;;;18.07;9.37;;;0.40;99.90;;;;;;5050484;28;20380;-88
2021/12/15 06:12:58;;;;;;;31.52;17.10;;;0.40;99.90;;;;;;5039779;28;20464;-88
2021/12/15 06:15:29;;;;;;;38.58;24.33;;;0.40;99.90;;;;;;5034292;28;20403;-88
2021/12/15 06:18:08;;;;;;;15.20;8.13;;;0.40;99.90;;;;;;5049852;28;20494;-88
2021/12/15 06:20:37;;;;;;;20.08;8.63;;;0.40;99.90;;;;;;5056445;28;20949;-89
2021/12/15 06:23:11;;;;;;;15.27;8.00;;;0.40;99.90;;;;;;5054809;28;20444;-88
2021/12/15 06:25:40;;;;;;;18.38;8.32;;;0.40;99.90;;;;;;5055649;28;20461;-88
2021/12/15 06:28:09;;;;;;;16.92;8.52;;;0.40;99.90;;;;;;5073415;28;20491;-89
2021/12/15 06:30:38;;;;;;;14.68;7.70;;;0.40;99.90;;;;;;5058045;28;20414;-88
2021/12/15 06:33:06;;;;;;;18.67;8.38;;;0.40;99.90;;;;;;5056806;28;20980;-88
2021/12/15 06:35:35;;;;;;;16.17;8.18;;;0.40;99.90;;;;;;5057097;28;20417;-88
2021/12/15 06:38:05;;;;;;;21.20;10.25;;;0.40;99.90;;;;;;5058465;28;20394;-88
2021/12/15 06:40:33;;;;;;;18.10;8.20;;;0.40;99.90;;;;;;5093956;28;20486;-88
2021/12/15 06:43:01;;;;;;;19.73;9.23;;;0.40;99.90;;;;;;5077193;28;20388;-88
2021/12/15 06:45:36;;;;;;;16.92;8.27;;;0.40;99.90;;;;;;5076835;28;20400;-88
2021/12/15 06:58:56;;;;;;;14.38;6.72;;;0.40;99.90;;;;;;5056626;28;20404;-88
2021/12/15 07:01:23;;;;;;;17.15;7.88;;;0.40;99.90;;;;;;5073085;28;20480;-88
2021/12/15 07:03:51;;;;;;;14.35;6.43;;;0.40;99.90;;;;;;5056442;28;20761;-86
2021/12/15 07:06:19;;;;;;;13.95;7.03;;;0.40;99.90;;;;;;5056523;28;20429;-89
2021/12/15 07:08:47;;;;;;;15.70;8.00;;;0.50;99.90;;;;;;5072895;28;20398;-87
2021/12/15 07:11:15;;;;;;;10.95;5.38;;;0.50;99.90;;;;;;5056450;28;20812;-89
2021/12/15 07:13:42;;;;;;;15.73;6.20;;;0.50;99.90;;;;;;5056655;28;20391;-89
2021/12/15 07:16:10;;;;;;;13.60;6.03;;;0.50;99.90;;;;;;5089895;28;20386;-88
2021/12/15 07:21:21;;;;;;;14.32;6.28;;;0.50;99.90;;;;;;5086235;28;20453;-89
2021/12/15 07:23:51;;;;;;;14.10;6.63;;;0.50;99.90;;;;;;5053309;28;20414;-89
2021/12/15 07:26:21;;;;;;;18.83;7.85;;;0.50;99.90;;;;;;5052942;28;20399;-89
2021/12/15 07:28:49;;;;;;;16.92;7.35;;;0.50;99.90;;;;;;5052777;28;20435;-89
2021/12/15 07:31:17;;;;;;;13.65;6.60;;;0.50;99.90;;;;;;5052651;28;20482;-89
2021/12/15 07:33:45;;;;;;;17.83;8.50;;;0.50;99.90;;;;;;5052854;28;20474;-89
2021/12/15 07:36:15;;;;;;;15.23;6.43;;;0.50;99.90;;;;;;5053733;28;20391;-88
2021/12/15 07:38:44;;;;;;;17.35;7.45;;;0.50;99.90;;;;;;5062139;28;20493;-89
2021/12/15 07:41:28;;;;;;;18.35;6.72;;;0.50;99.90;;;;;;5068274;28;20425;-89
2021/12/15 07:44:00;;;;;;;15.82;7.30;;;0.50;99.90;;;;;;5066573;28;20538;-89
2021/12/15 07:46:49;;;;;;;17.25;7.85;;;0.50;99.90;;;;;;5064600;28;20917;-88
2021/12/15 07:49:18;;;;;;;12.88;6.40;;;0.60;99.90;;;;;;5063387;28;20406;-88
2021/12/15 07:51:47;;;;;;;10.80;5.63;;;0.50;99.90;;;;;;5039169;28;20960;-87
2021/12/15 07:54:16;;;;;;;12.35;5.63;;;0.60;99.90;;;;;;5060929;28;20405;-88
2021/12/15 07:56:43;;;;;;;13.25;6.20;;;0.60;99.90;;;;;;5060126;28;20911;-86
2021/12/15 07:59:11;;;;;;;15.40;6.43;;;0.60;99.90;;;;;;5050316;28;20412;-88
2021/12/15 08:01:39;;;;;;;12.02;5.43;;;0.60;99.90;;;;;;5054630;28;20422;-88
2021/12/15 08:04:07;;;;;;;13.30;5.55;;;0.60;99.90;;;;;;5061796;28;20422;-88
2021/12/15 08:06:35;;;;;;;13.38;5.82;;;0.60;99.90;;;;;;5063563;28;20404;-88
2021/12/15 08:09:05;;;;;;;14.55;6.22;;;0.60;99.90;;;;;;5062385;28;20475;-88
2021/12/15 08:11:32;;;;;;;17.30;6.50;;;0.70;99.90;;;;;;5047218;28;20936;-87
2021/12/15 08:14:01;;;;;;;15.55;7.18;;;0.70;99.90;;;;;;5061092;28;20403;-87
2021/12/15 08:16:28;;;;;;;13.32;5.38;;;0.60;99.90;;;;;;5055460;28;20488;-88
2021/12/15 08:18:56;;;;;;;13.13;5.28;;;0.60;99.90;;;;;;5070409;28;20493;-88
2021/12/15 08:21:28;;;;;;;12.82;5.35;;;0.60;99.90;;;;;;5035442;28;20396;-88
2021/12/15 08:23:57;;;;;;;11.75;4.95;;;0.70;99.90;;;;;;5085199;28;20404;-88
2021/12/15 08:26:24;;;;;;;16.33;5.90;;;0.60;99.90;;;;;;5068367;28;20396;-87
2021/12/15 08:28:52;;;;;;;12.73;5.43;;;0.70;99.90;;;;;;5035080;28;20384;-87
2021/12/15 08:31:20;;;;;;;9.15;4.53;;;0.70;99.90;;;;;;5034963;28;20801;-88
2021/12/15 08:33:48;;;;;;;12.73;5.10;;;0.70;99.90;;;;;;5035631;28;20465;-88
2021/12/15 08:36:16;;;;;;;16.88;5.57;;;0.70;99.90;;;;;;5051357;28;20461;-88
2021/12/15 08:38:46;;;;;;;9.70;4.30;;;0.70;99.90;;;;;;5051545;28;20424;-87
2021/12/15 08:41:18;;;;;;;12.82;5.20;;;0.70;99.90;;;;;;5051348;28;20400;-87
2021/12/15 08:43:46;;;;;;;15.33;5.00;;;0.70;99.90;;;;;;5051330;28;20403;-88
2021/12/15 08:46:27;;;;;;;13.73;4.47;;;0.70;99.90;;;;;;5051181;28;20473;-88
2021/12/15 08:48:56;;;;;;;11.27;4.50;;;0.70;99.90;;;;;;5071189;28;20933;-87
2021/12/15 08:51:26;;;;;;;11.25;4.32;;;0.70;99.90;;;;;;5070893;28;20385;-88
2021/12/15 08:54:03;;;;;;;14.90;5.00;;;0.70;99.90;;;;;;5037579;28;20478;-88
2021/12/15 08:56:32;;;;;;;14.20;5.07;;;0.80;99.90;;;;;;5071085;28;20390;-87
2021/12/15 08:59:00;;;;;;;13.38;4.65;;;0.70;99.90;;;;;;5064157;28;20870;-88
2021/12/15 09:01:27;;;;;;;15.65;5.40;;;0.80;99.90;;;;;;5051116;28;20407;-88
2021/12/15 09:03:55;;;;;;;13.37;5.43;;;0.80;99.90;;;;;;5034375;28;20469;-87
2021/12/15 09:06:24;;;;;;;12.70;4.40;;;0.80;99.90;;;;;;5051108;28;20388;-88
2021/12/15 09:08:52;;;;;;;16.30;5.03;;;0.80;99.90;;;;;;5067622;28;20391;-89
2021/12/15 09:11:24;;;;;;;13.38;4.80;;;0.80;99.90;;;;;;5050980;28;20395;-88
2021/12/15 09:13:54;;;;;;;12.90;4.47;;;0.80;99.90;;;;;;5059507;28;20403;-88
2021/12/15 09:16:23;;;;;;;11.07;4.10;;;0.80;99.90;;;;;;5059589;28;20463;-87
2021/12/15 09:18:53;;;;;;;12.90;4.68;;;0.80;99.90;;;;;;5067113;28;20404;-88
2021/12/15 09:21:23;;;;;;;15.25;4.35;;;0.80;99.90;;;;;;5061144;28;20420;-87
2021/12/15 09:23:51;;;;;;;12.02;4.18;;;0.80;99.90;;;;;;5053040;28;20392;-88
2021/12/15 09:26:20;;;;;;;12.55;5.38;;;0.80;99.90;;;;;;5070537;28;20916;-87
2021/12/15 09:28:49;;;;;;;13.73;6.28;;;0.80;99.90;;;;;;5070429;28;20388;-86
2021/12/15 09:31:17;;;;;;;13.95;6.68;;;0.90;99.90;;;;;;5070887;28;20938;-88
2021/12/15 09:33:47;;;;;;;15.63;6.55;;;0.80;99.90;;;;;;5070625;28;20461;-87
2021/12/15 09:36:16;;;;;;;13.80;6.43;;;0.80;99.90;;;;;;5051910;28;20770;-88
2021/12/15 09:38:49;;;;;;;12.82;6.30;;;0.80;99.90;;;;;;5050460;28;20458;-88
2021/12/15 09:41:18;;;;;;;16.45;6.65;;;0.90;99.90;;;;;;5050485;28;20410;-88
2021/12/15 09:43:48;;;;;;;13.45;5.60;;;0.80;99.90;;;;;;5066802;28;20477;-86
2021/12/15 09:46:31;;;;;;;15.52;5.68;;;0.80;99.90;;;;;;5033980;28;20411;-88
2021/12/15 10:02:47;;;;;;;15.07;5.45;;;0.90;99.90;;;;;;5051874;28;20384;-88
2021/12/15 10:11:44;;;;;;;14.07;4.55;;;0.90;99.90;;;;;;5054413;28;20905;-88
2021/12/15 10:19:38;;;;;;;13.65;4.47;;;1.00;99.90;;;;;;5053916;28;20944;-88
2021/12/15 10:22:18;;;;;;;16.10;4.70;;;1.00;99.90;;;;;;5053700;28;20458;-87
2021/12/15 10:25:20;;;;;;;13.98;5.10;;;1.00;99.90;;;;;;5057315;28;20503;-88
2021/12/15 10:28:04;;;;;;;16.52;5.47;;;0.90;99.90;;;;;;5065353;28;20382;-87
2021/12/15 10:30:38;;;;;;;15.23;5.30;;;1.00;99.90;;;;;;5074754;28;20390;-88
2021/12/15 10:33:12;;;;;;;14.25;4.60;;;1.00;99.90;;;;;;5074923;28;20428;-87
2021/12/15 10:35:52;;;;;;;19.27;6.03;;;1.00;99.90;;;;;;5073725;28;20394;-88
2021/12/15 10:38:27;;;;;;;13.80;4.85;;;1.00;99.90;;;;;;5057229;28;20436;-88
2021/12/15 10:41:09;;;;;;;19.98;5.65;;;1.00;99.90;;;;;;5073492;28;20458;-87
2021/12/15 10:43:48;;;;;;;14.47;5.33;;;1.00;99.90;;;;;;5073803;28;20406;-88
2021/12/15 10:46:35;;;;;;;16.58;5.65;;;1.00;99.90;;;;;;5073307;28;20406;-87
2021/12/15 10:49:04;;;;;;;13.43;5.60;;;1.10;99.90;;;;;;5073487;28;20938;-88
2021/12/15 10:51:38;;;;;;;14.90;6.38;;;1.10;99.90;;;;;;5073753;28;20409;-88
2021/12/15 10:54:20;;;;;;;19.83;6.35;;;1.10;99.90;;;;;;5073364;28;20382;-88
2021/12/15 10:56:58;;;;;;;19.58;6.63;;;1.10;99.90;;;;;;5056836;28;20783;-87
2021/12/15 10:59:35;;;;;;;15.07;6.30;;;1.10;99.90;;;;;;5073144;28;20395;-86
2021/12/15 11:02:09;;;;;;;12.32;5.43;;;1.10;99.90;;;;;;5073057;28;20426;-86
2021/12/15 11:04:49;;;;;;;20.90;5.75;;;1.10;99.90;;;;;;5072909;28;20389;-87
2021/12/15 11:07:36;;;;;;;14.30;5.28;;;1.10;99.90;;;;;;5072954;28;20390;-87
2021/12/15 11:10:30;;;;;;;15.35;5.60;;;1.20;99.90;;;;;;5073057;28;20398;-87
2021/12/15 11:13:18;;;;;;;19.55;6.15;;;1.20;99.90;;;;;;5073050;28;20386;-87
2021/12/15 11:15:49;;;;;;;17.70;5.45;;;1.20;99.90;;;;;;5054911;28;20463;-86
2021/12/15 11:18:21;;;;;;;14.25;5.78;;;1.20;99.90;;;;;;5072802;28;20819;-86
2021/12/15 11:21:02;;;;;;;23.23;5.97;;;1.20;99.90;;;;;;5072629;28;20402;-87
2021/12/15 11:23:31;;;;;;;17.90;6.63;;;1.20;99.90;;;;;;5072966;28;20527;-87
2021/12/15 11:26:10;;;;;;;20.35;6.03;;;1.20;99.90;;;;;;5072729;28;20405;-88
2021/12/15 11:28:46;;;;;;;19.63;7.07;;;1.20;99.90;;;;;;5052602;28;20383;-86
2021/12/15 11:31:24;;;;;;;15.45;6.30;;;1.20;99.90;;;;;;5035645;28;20467;-87
2021/12/15 11:34:05;;;;;;;15.55;5.80;;;1.20;99.90;;;;;;5083983;28;20441;-86
2021/12/15 11:36:34;;;;;;;20.10;6.17;;;1.20;99.90;;;;;;5059993;28;20483;-87
2021/12/15 11:39:10;;;;;;;18.20;6.00;;;1.30;99.90;;;;;;5064928;28;20937;-87
2021/12/15 11:41:43;;;;;;;17.52;4.97;;;1.30;99.90;;;;;;5068087;28;20406;-87
2021/12/15 11:44:23;;;;;;;14.43;4.90;;;1.30;99.90;;;;;;5054937;28;20463;-86
2021/12/15 11:46:54;;;;;;;19.60;4.97;;;1.30;99.90;;;;;;5053782;28;20429;-87
2021/12/15 11:49:34;;;;;;;16.30;4.93;;;1.30;99.90;;;;;;5067992;28;20396;-88
2021/12/15 11:52:10;;;;;;;14.32;5.00;;;1.30;99.90;;;;;;5075547;28;20445;-87
2021/12/15 11:54:40;;;;;;;13.65;4.65;;;1.30;99.90;;;;;;5052134;28;20391;-87
2021/12/15 11:57:18;;;;;;;13.18;4.45;;;1.30;99.90;;;;;;5052235;28;20404;-86
2021/12/15 11:59:49;;;;;;;13.30;4.85;;;1.30;99.90;;;;;;5051981;28;20411;-87
2021/12/15 12:02:28;;;;;;;13.93;4.57;;;1.40;99.90;;;;;;5055531;28;20437;-88
2021/12/15 12:05:09;;;;;;;13.97;4.87;;;1.40;99.90;;;;;;5057098;28;20451;-88
2021/12/15 12:07:37;;;;;;;15.10;4.80;;;1.40;99.90;;;;;;5054485;28;20907;-87
2021/12/15 12:10:10;;;;;;;16.02;5.57;;;1.40;99.90;;;;;;5064709;28;20403;-86
2021/12/15 12:12:49;;;;;;;13.15;5.20;;;1.40;99.90;;;;;;5071203;28;20485;-87
2021/12/15 12:15:20;;;;;;;18.17;6.25;;;1.50;99.90;;;;;;5067214;28;20433;-87
2021/12/15 12:17:51;;;;;;;18.37;6.20;;;1.50;99.90;;;;;;5052148;28;20972;-87
2021/12/15 12:20:26;;;;;;;21.42;7.00;;;1.50;99.90;;;;;;5062295;28;20890;-87
2021/12/15 12:22:56;;;;;;;14.15;6.30;;;1.40;99.90;;;;;;5071725;28;20431;-86
2021/12/15 12:25:28;;;;;;;14.98;6.07;;;1.40;99.90;;;;;;5054839;28;20398;-88
2021/12/15 12:27:57;;;;;;;16.80;6.30;;;1.40;99.90;;;;;;5066444;28;20898;-87
2021/12/15 12:30:29;;;;;;;20.80;7.18;;;1.40;99.90;;;;;;5051634;28;20404;-88
2021/12/15 12:32:57;;;;;;;15.50;6.72;;;1.40;99.90;;;;;;5052108;28;20427;-88
2021/12/15 12:35:29;;;;;;;20.52;7.90;;;1.40;99.90;;;;;;5070628;28;20397;-88
2021/12/15 12:38:11;;;;;;;22.77;8.02;;;1.40;99.90;;;;;;5065260;28;20388;-87
2021/12/15 12:40:48;;;;;;;23.88;6.72;;;1.40;99.90;;;;;;5070199;28;20394;-87
2021/12/15 12:43:17;;;;;;;31.15;8.02;;;1.40;99.90;;;;;;5050853;28;20483;-87
2021/12/15 12:46:06;;;;;;;15.52;7.68;;;1.40;99.90;;;;;;5067775;28;20412;-87
2021/12/15 12:48:51;;;;;;;18.40;7.15;;;1.40;99.90;;;;;;5070931;28;20880;-87
2021/12/15 13:00:48;;;;;;;24.80;7.00;;;1.40;99.90;;;;;;5033497;28;20410;-87
2021/12/15 13:03:33;;;;;;;45.65;8.30;;;1.40;99.90;;;;;;5067907;28;20398;-87
2021/12/15 13:06:08;;;;;;;32.50;8.80;;;1.50;99.90;;;;;;5070916;28;20410;-88
2021/12/15 13:08:59;;;;;;;45.88;9.57;;;1.40;99.90;;;;;;5070832;28;20480;-87
2021/12/15 13:11:36;;;;;;;35.40;8.88;;;1.40;99.90;;;;;;5070729;28;20396;-87
2021/12/15 13:14:37;;;;;;;31.67;7.68;;;1.40;99.90;;;;;;5070663;28;20390;-87
2021/12/15 13:17:21;;;;;;;32.17;8.00;;;1.40;99.90;;;;;;5070839;28;20454;-87
2021/12/15 13:19:51;;;;;;;53.20;8.90;;;1.40;99.90;;;;;;5053677;28;20465;-88
2021/12/15 13:31:15;;;;;;;78.10;9.90;;;1.40;99.90;;;;;;5070583;28;20768;-88
2021/12/15 13:33:52;;;;;;;57.75;10.52;;;1.40;99.90;;;;;;5054371;28;20406;-88
2021/12/15 13:36:23;;;;;;;26.98;7.32;;;1.40;99.90;;;;;;5054096;28;20402;-88
2021/12/15 13:38:52;;;;;;;70.95;9.27;;;1.40;99.90;;;;;;5074232;28;20787;-89
2021/12/15 13:44:16;;;;;;;57.78;8.55;;;1.50;99.90;;;;;;5074599;28;20409;-88
2021/12/15 13:46:56;;;;;;;58.80;8.57;;;1.40;99.90;;;;;;5054823;28;20478;-88
2021/12/15 13:49:30;;;;;;;51.05;8.52;;;1.50;99.90;;;;;;5055104;28;20400;-88
2021/12/15 13:52:28;;;;;;;25.05;7.63;;;1.40;99.90;;;;;;5071650;28;20399;-88
2021/12/15 13:55:21;;;;;;;18.15;6.18;;;1.40;99.90;;;;;;5071625;28;20457;-86
2021/12/15 13:58:07;;;;;;;14.95;6.32;;;1.50;99.90;;;;;;5088358;28;20404;-86
2021/12/15 14:00:47;;;;;;;11.63;4.88;;;1.40;99.90;;;;;;5087856;28;20399;-87
2021/12/15 14:03:17;;;;;;;10.32;4.80;;;1.40;99.90;;;;;;5055710;28;20888;-87
2021/12/15 14:06:05;;;;;;;9.55;4.07;;;1.50;99.90;;;;;;5087799;28;20440;-87
2021/12/15 14:08:53;;;;;;;10.13;4.55;;;1.50;99.90;;;;;;5054076;28;20395;-86
2021/12/15 14:11:27;;;;;;;10.48;4.45;;;1.50;99.90;;;;;;5079055;28;20387;-87
2021/12/15 14:14:14;;;;;;;8.60;3.80;;;1.50;99.90;;;;;;5061028;28;20449;-86
2021/12/15 14:17:00;;;;;;;9.90;4.10;;;1.50;99.90;;;;;;5053999;28;20473;-87
2021/12/15 14:19:36;;;;;;;7.93;4.32;;;1.50;99.90;;;;;;5070469;28;20396;-87
2021/12/15 14:22:07;;;;;;;11.80;5.15;;;1.50;99.90;;;;;;5054008;28;20418;-88
2021/12/15 14:24:36;;;;;;;8.68;4.28;;;1.50;99.90;;;;;;5070734;28;20395;-89
2021/12/15 14:27:05;;;;;;;7.80;4.72;;;1.50;99.90;;;;;;5037351;28;20403;-85
2021/12/15 14:29:33;;;;;;;7.80;4.28;;;1.50;99.90;;;;;;5054111;28;20447;-91
2021/12/15 14:32:03;;;;;;;9.43;5.13;;;1.50;99.90;;;;;;5056571;28;20399;-88
2021/12/15 14:34:35;;;;;;;10.05;4.88;;;1.50;99.90;;;;;;5063835;28;20565;-89
2021/12/15 14:37:20;;;;;;;12.40;5.30;;;1.50;99.90;;;;;;5053855;28;20578;-90
2021/12/15 14:39:51;;;;;;;16.65;6.38;;;1.50;99.90;;;;;;5053948;28;20402;-90
2021/12/15 14:42:21;;;;;;;13.48;6.40;;;1.50;99.90;;;;;;5065806;28;20394;-87
2021/12/15 14:44:55;;;;;;;16.20;7.60;;;1.50;99.90;;;;;;5083016;28;20966;-88
2021/12/15 14:47:26;;;;;;;11.40;6.07;;;1.50;99.90;;;;;;5073345;28;20402;-88
2021/12/15 14:50:14;;;;;;;10.10;5.75;;;1.50;99.90;;;;;;5055904;28;20903;-90